createdAt,value
2019-03-12T00:00:37.250Z,62.04
2019-03-12T00:03:09.799Z,62.00
2019-03-12T00:05:40.705Z,61.95
2019-03-12T00:08:11.811Z,61.99
2019-03-12T00:10:43.484Z,62.00
2019-03-12T00:13:14.473Z,62.03
2019-03-12T00:15:45.412Z,62.10
2019-03-12T00:18:16.340Z,62.10
2019-03-12T00:20:47.240Z,62.12
2019-03-12T00:23:18.972Z,62.01
2019-03-12T00:25:49.864Z,61.96
2019-03-12T00:28:20.795Z,61.91
2019-03-12T00:30:51.710Z,61.80
2019-03-12T00:33:22.641Z,61.73
2019-03-12T00:35:53.538Z,61.69
2019-03-12T00:38:24.491Z,61.70
2019-03-12T00:40:55.385Z,61.77
2019-03-12T00:43:26.312Z,61.75
2019-03-12T00:45:57.215Z,61.96
2019-03-12T00:48:28.993Z,62.12
2019-03-12T00:50:59.901Z,62.17
2019-03-12T00:53:31.666Z,62.16
2019-03-12T00:56:02.559Z,62.09
2019-03-12T00:58:33.490Z,62.00
2019-03-12T01:01:04.385Z,61.91
2019-03-12T01:03:35.319Z,61.74
2019-03-12T01:06:06.227Z,61.59
2019-03-12T01:08:37.175Z,61.39
2019-03-12T01:11:08.081Z,61.36
2019-03-12T01:13:39.005Z,61.37
2019-03-12T01:16:09.922Z,61.30
2019-03-12T01:18:40.843Z,61.26
2019-03-12T01:21:11.747Z,61.21
2019-03-12T01:23:43.478Z,61.20
2019-03-12T01:26:14.382Z,61.21
2019-03-12T01:28:45.301Z,61.16
2019-03-12T01:31:16.196Z,61.09
2019-03-12T01:33:47.124Z,61.02
2019-03-12T01:36:18.024Z,60.89
2019-03-12T01:38:49.008Z,60.87
2019-03-12T01:41:19.896Z,60.83
2019-03-12T01:43:50.830Z,60.81
2019-03-12T01:46:21.724Z,60.77
2019-03-12T01:48:52.714Z,60.59
2019-03-12T01:51:23.712Z,60.22
2019-03-12T01:53:54.652Z,60.03
2019-03-12T01:56:25.553Z,59.85
2019-03-12T01:58:56.467Z,59.50
2019-03-12T02:01:27.371Z,59.55
2019-03-12T02:03:59.058Z,59.35
2019-03-12T02:06:29.956Z,59.27
2019-03-12T02:09:01.790Z,59.27
2019-03-12T02:11:32.681Z,59.25
2019-03-12T02:14:06.692Z,59.20
2019-03-12T02:16:37.568Z,59.09
2019-03-12T02:19:27.168Z,58.96
2019-03-12T02:21:58.040Z,58.75
2019-03-12T02:24:29.342Z,58.48
2019-03-12T02:27:00.231Z,58.15
2019-03-12T02:29:31.163Z,57.38
2019-03-12T02:32:02.037Z,57.31
2019-03-12T02:34:32.954Z,57.07
2019-03-12T02:37:03.844Z,56.91
2019-03-12T02:39:34.799Z,56.06
2019-03-12T02:42:05.690Z,56.08
2019-03-12T02:44:36.602Z,55.75
2019-03-12T02:47:07.476Z,55.57
2019-03-12T02:49:38.386Z,55.43
2019-03-12T02:52:09.278Z,55.14
2019-03-12T02:54:41.126Z,54.72
2019-03-12T02:57:12.004Z,54.60
2019-03-12T02:59:42.950Z,54.30
2019-03-12T03:02:13.845Z,53.86
2019-03-12T03:04:44.763Z,53.94
2019-03-12T03:07:20.252Z,54.04
2019-03-12T03:09:51.198Z,53.86
2019-03-12T03:12:22.098Z,53.74
2019-03-12T03:14:53.007Z,53.69
2019-03-12T03:17:23.963Z,53.65
2019-03-12T03:19:54.880Z,53.63
2019-03-12T03:22:25.766Z,53.36
2019-03-12T03:24:57.722Z,53.23
2019-03-12T03:27:29.550Z,53.72
2019-03-12T03:30:01.031Z,53.71
2019-03-12T03:32:31.967Z,53.81
2019-03-12T03:35:02.888Z,53.91
2019-03-12T03:37:33.767Z,53.99
2019-03-12T03:40:06.807Z,54.08
2019-03-12T03:42:37.707Z,54.16
2019-03-12T03:45:09.716Z,54.42
2019-03-12T03:47:40.618Z,54.56
2019-03-12T03:50:13.618Z,54.68
2019-03-12T03:52:44.550Z,54.77
2019-03-12T03:55:21.643Z,54.66
2019-03-12T03:57:52.620Z,54.74
2019-03-12T04:00:25.184Z,54.77
2019-03-12T04:02:56.064Z,54.81
2019-03-12T04:05:26.995Z,54.75
2019-03-12T04:07:57.890Z,54.88
2019-03-12T04:10:29.822Z,55.06
2019-03-12T04:13:00.759Z,55.22
2019-03-12T04:15:31.831Z,55.41
2019-03-12T04:18:02.824Z,55.53
2019-03-12T04:20:33.782Z,55.57
2019-03-12T04:23:04.670Z,55.64
2019-03-12T04:25:38.072Z,55.62
2019-03-12T04:28:08.963Z,55.54
2019-03-12T04:30:39.891Z,55.52
2019-03-12T04:33:32.693Z,55.65
2019-03-12T04:36:03.674Z,55.82
2019-03-12T04:38:34.576Z,55.86
2019-03-12T04:41:07.182Z,55.97
2019-03-12T04:43:38.074Z,56.14
2019-03-12T04:46:09.017Z,56.26
2019-03-12T04:48:39.898Z,56.29
2019-03-12T04:51:10.812Z,56.27
2019-03-12T04:53:41.701Z,56.22
2019-03-12T04:56:13.711Z,56.18
2019-03-12T04:58:44.608Z,56.13
2019-03-12T05:01:15.594Z,56.11
2019-03-12T05:03:46.486Z,56.03
2019-03-12T05:06:19.797Z,55.95
2019-03-12T05:08:50.008Z,55.88
2019-03-12T05:11:21.024Z,55.69
2019-03-12T05:14:18.316Z,55.63
2019-03-12T05:16:50.076Z,55.55
2019-03-12T05:19:20.962Z,55.05
2019-03-12T05:21:51.899Z,55.10
2019-03-12T05:24:22.792Z,55.12
2019-03-12T05:26:54.576Z,55.30
2019-03-12T05:29:25.484Z,55.23
2019-03-12T05:31:56.413Z,55.01
2019-03-12T05:34:27.317Z,55.03
2019-03-12T05:36:58.238Z,54.84
2019-03-12T05:39:29.135Z,54.82
2019-03-12T05:42:00.919Z,54.87
2019-03-12T05:44:31.829Z,54.59
2019-03-12T05:47:02.766Z,54.38
2019-03-12T05:49:33.668Z,54.19
2019-03-12T05:52:04.590Z,54.08
2019-03-12T05:54:35.489Z,53.66
2019-03-12T05:57:06.525Z,52.66
2019-03-12T05:59:37.445Z,52.66
2019-03-12T06:02:08.365Z,51.60
2019-03-12T06:04:44.941Z,50.87
2019-03-12T06:07:15.866Z,50.17
2019-03-12T06:09:46.749Z,49.14
2019-03-12T06:12:18.499Z,48.55
2019-03-12T06:14:50.221Z,48.32
2019-03-12T06:17:21.142Z,47.45
2019-03-12T06:19:52.032Z,47.20
2019-03-12T06:22:22.946Z,46.79
2019-03-12T06:24:53.906Z,46.39
2019-03-12T06:27:25.838Z,45.70
2019-03-12T06:29:56.739Z,44.95
2019-03-12T06:32:29.294Z,44.73
2019-03-12T06:35:01.843Z,44.25
2019-03-12T06:37:34.388Z,44.18
2019-03-12T06:40:12.076Z,43.80
2019-03-12T06:42:54.482Z,43.61
2019-03-12T06:45:33.023Z,43.01
2019-03-12T06:48:05.590Z,42.83
2019-03-12T06:50:53.377Z,42.73
2019-03-12T06:53:34.864Z,42.57
2019-03-12T06:56:09.873Z,42.29
2019-03-12T06:58:45.482Z,41.73
2019-03-12T07:01:34.444Z,41.29
2019-03-12T07:04:23.321Z,40.99
2019-03-12T07:07:12.827Z,40.67
2019-03-12T07:09:57.928Z,40.71
2019-03-12T07:12:45.496Z,40.18
2019-03-12T07:15:35.802Z,40.04
2019-03-12T07:18:14.157Z,39.77
2019-03-12T07:20:46.733Z,39.64
2019-03-12T07:23:19.281Z,39.65
2019-03-12T07:25:54.800Z,38.85
2019-03-12T07:28:50.188Z,38.44
2019-03-12T07:31:31.069Z,38.11
2019-03-12T07:34:10.036Z,37.86
2019-03-12T07:36:48.598Z,37.65
2019-03-12T07:39:26.869Z,37.81
2019-03-12T07:42:05.517Z,37.46
2019-03-12T07:44:38.050Z,37.50
2019-03-12T07:47:16.357Z,37.63
2019-03-12T07:50:05.191Z,37.51
2019-03-12T07:52:40.471Z,37.73
2019-03-12T07:55:13.012Z,37.89
2019-03-12T07:57:54.322Z,37.99
2019-03-12T08:00:41.887Z,37.76
2019-03-12T08:03:15.539Z,38.06
2019-03-12T08:06:03.348Z,37.90
2019-03-12T08:08:52.354Z,37.90
2019-03-12T08:11:27.843Z,38.29
2019-03-12T08:14:16.748Z,38.03
2019-03-12T08:16:52.881Z,38.30
2019-03-12T08:19:41.322Z,38.17
2019-03-12T08:22:25.701Z,38.73
2019-03-12T08:25:07.457Z,39.17
2019-03-12T08:27:55.023Z,39.25
2019-03-12T08:30:27.586Z,38.87
2019-03-12T08:33:02.824Z,39.23
2019-03-12T08:35:45.456Z,39.01
2019-03-12T08:38:21.086Z,39.27
2019-03-12T08:41:08.958Z,39.65
2019-03-12T08:43:41.498Z,39.49
2019-03-12T08:46:30.160Z,39.67
2019-03-12T08:49:05.406Z,39.90
2019-03-12T08:51:40.922Z,39.62
2019-03-12T08:54:28.806Z,39.31
2019-03-12T08:57:01.384Z,39.12
2019-03-12T08:59:50.022Z,39.39
2019-03-12T09:02:28.426Z,38.53
2019-03-12T09:05:00.982Z,38.20
2019-03-12T09:07:43.331Z,37.55
2019-03-12T09:10:21.717Z,36.83
2019-03-12T09:13:00.465Z,37.11
2019-03-12T09:15:33.114Z,37.28
2019-03-12T09:18:17.618Z,37.21
2019-03-12T09:20:56.184Z,37.03
2019-03-12T09:23:45.212Z,37.04
2019-03-12T09:26:28.250Z,36.80
2019-03-12T09:29:12.791Z,36.83
2019-03-12T09:31:48.050Z,36.48
2019-03-12T09:34:23.364Z,37.01
2019-03-12T09:37:04.864Z,37.20
2019-03-12T09:39:55.504Z,37.41
2019-03-12T09:42:28.035Z,37.61
2019-03-12T09:45:03.420Z,37.11
2019-03-12T09:47:35.945Z,36.95
2019-03-12T09:50:22.748Z,37.06
2019-03-12T09:53:00.987Z,37.49
2019-03-12T09:55:34.441Z,37.22
2019-03-12T09:58:06.979Z,37.25
2019-03-12T10:00:51.561Z,37.17
2019-03-12T10:03:24.092Z,37.34
2019-03-12T10:06:00.214Z,37.49
2019-03-12T10:08:35.479Z,37.56
2019-03-12T10:11:28.205Z,37.93
2019-03-12T10:14:06.810Z,37.81
2019-03-12T10:16:39.383Z,38.22
2019-03-12T10:19:15.628Z,38.83
2019-03-12T10:21:50.885Z,39.11
2019-03-12T10:24:23.409Z,39.35
2019-03-12T10:27:12.156Z,39.09
2019-03-12T10:29:44.691Z,39.16
2019-03-12T10:32:32.487Z,38.79
2019-03-12T10:35:08.229Z,38.81
2019-03-12T10:37:43.504Z,39.08
2019-03-12T10:40:24.784Z,39.18
2019-03-12T10:43:03.907Z,38.97
2019-03-12T10:45:45.820Z,39.05
2019-03-12T10:48:18.008Z,38.76
2019-03-12T10:50:48.900Z,38.64
2019-03-12T10:53:19.826Z,38.51
2019-03-12T10:55:50.725Z,38.73
2019-03-12T10:58:21.710Z,38.65
2019-03-12T11:00:52.668Z,37.65
2019-03-12T11:03:23.591Z,37.58
2019-03-12T11:05:54.484Z,37.60
2019-03-12T11:08:25.406Z,37.34
2019-03-12T11:10:56.301Z,37.42
2019-03-12T11:13:27.239Z,37.86
2019-03-12T11:15:58.144Z,37.95
2019-03-12T11:18:29.090Z,38.02
2019-03-12T11:21:01.579Z,38.41
2019-03-12T11:23:32.490Z,38.18
2019-03-12T11:26:03.381Z,38.24
2019-03-12T11:28:35.217Z,38.51
2019-03-12T11:31:06.203Z,39.07
2019-03-12T11:33:37.126Z,39.51
2019-03-12T11:36:11.949Z,39.83
2019-03-12T11:38:45.087Z,40.35
2019-03-12T11:41:15.423Z,40.51
2019-03-12T11:43:47.171Z,41.06
2019-03-12T11:46:18.067Z,41.26
2019-03-12T11:48:49.140Z,41.11
2019-03-12T11:51:20.216Z,41.54
2019-03-12T11:53:51.139Z,42.87
2019-03-12T11:56:22.019Z,43.64
2019-03-12T11:58:53.141Z,44.61
2019-03-12T12:01:24.083Z,45.48
2019-03-12T12:03:55.021Z,47.01
2019-03-12T12:06:26.009Z,47.33
2019-03-12T12:08:56.922Z,48.62
2019-03-12T12:11:27.826Z,48.76
2019-03-12T12:13:58.787Z,49.50
2019-03-12T12:16:30.292Z,50.90
2019-03-12T12:19:01.212Z,51.73
2019-03-12T12:21:32.106Z,52.41
2019-03-12T12:24:03.097Z,52.80
2019-03-12T12:26:33.997Z,52.85
2019-03-12T12:29:05.922Z,53.09
2019-03-12T12:31:36.833Z,52.63
2019-03-12T12:34:07.761Z,52.98
2019-03-12T12:36:38.736Z,52.98
2019-03-12T12:39:09.669Z,53.42
2019-03-12T12:41:40.579Z,52.94
2019-03-12T12:44:12.378Z,53.03
2019-03-12T12:46:43.277Z,52.96
2019-03-12T12:49:14.207Z,52.88
2019-03-12T12:51:45.207Z,52.34
2019-03-12T12:54:16.133Z,52.05
2019-03-12T12:56:47.030Z,51.55
2019-03-12T12:59:18.857Z,51.50
2019-03-12T13:01:49.729Z,51.31
2019-03-12T13:04:20.729Z,50.90
2019-03-12T13:06:51.612Z,50.82
2019-03-12T13:09:22.551Z,50.22
2019-03-12T13:11:53.450Z,50.53
2019-03-12T13:14:26.921Z,50.12
2019-03-12T13:16:57.891Z,49.51
2019-03-12T13:19:28.839Z,49.28
2019-03-12T13:22:00.595Z,49.54
2019-03-12T13:24:31.505Z,49.59
2019-03-12T13:27:02.392Z,49.95
2019-03-12T13:29:34.296Z,50.20
2019-03-12T13:32:13.360Z,49.87
2019-03-12T13:34:37.886Z,49.85
2019-03-12T13:37:08.772Z,49.96
2019-03-12T13:39:39.690Z,50.36
2019-03-12T13:42:10.581Z,50.39
2019-03-12T13:44:41.574Z,50.28
2019-03-12T13:47:12.485Z,50.33
2019-03-12T13:49:43.386Z,50.09
2019-03-12T13:52:14.266Z,50.06
2019-03-12T13:54:45.215Z,50.03
2019-03-12T13:57:16.083Z,49.83
2019-03-12T13:59:47.922Z,50.02
2019-03-12T14:02:18.821Z,50.45
2019-03-12T14:04:49.813Z,50.37
2019-03-12T14:07:21.695Z,50.53
2019-03-12T14:09:52.618Z,50.70
2019-03-12T14:12:23.522Z,50.72
2019-03-12T14:14:54.468Z,51.07
2019-03-12T14:17:25.382Z,51.12
2019-03-12T14:19:56.298Z,51.02
2019-03-12T14:22:27.258Z,51.10
2019-03-12T14:24:58.419Z,51.45
2019-03-12T14:27:29.386Z,51.57
2019-03-12T14:30:01.446Z,51.84
2019-03-12T14:32:32.406Z,51.71
2019-03-12T14:35:03.344Z,51.98
2019-03-12T14:37:36.088Z,51.86
2019-03-12T14:40:07.239Z,51.75
2019-03-12T14:42:38.188Z,51.68
2019-03-12T14:45:14.288Z,51.42
2019-03-12T14:47:45.182Z,51.57
2019-03-12T14:50:18.172Z,51.53
2019-03-12T14:52:57.572Z,51.11
2019-03-12T14:55:28.483Z,51.18
2019-03-12T14:57:59.378Z,51.15
2019-03-12T15:00:31.416Z,51.17
2019-03-12T15:03:02.342Z,51.04
2019-03-12T15:05:33.283Z,51.13
2019-03-12T15:08:05.195Z,50.85
2019-03-12T15:10:36.117Z,50.78
2019-03-12T15:13:07.028Z,50.94
2019-03-12T15:15:38.935Z,50.92
2019-03-12T15:18:09.854Z,50.91
2019-03-12T15:20:40.809Z,50.29
2019-03-12T15:23:13.505Z,49.94
2019-03-12T15:25:44.431Z,49.69
2019-03-12T15:28:15.346Z,49.59
2019-03-12T15:30:47.946Z,49.42
2019-03-12T15:33:18.855Z,49.51
2019-03-12T15:35:49.789Z,49.70
2019-03-12T15:38:20.750Z,49.75
2019-03-12T15:40:51.684Z,49.83
2019-03-12T15:43:22.595Z,49.75
2019-03-12T15:45:55.233Z,49.82
2019-03-12T15:48:28.436Z,49.87
2019-03-12T15:50:59.366Z,49.84
2019-03-12T15:53:30.266Z,50.12
2019-03-12T15:56:01.195Z,50.11
2019-03-12T15:58:32.099Z,50.46
2019-03-12T16:01:07.196Z,50.37
2019-03-12T16:03:38.284Z,50.59
2019-03-12T16:06:09.305Z,50.70
2019-03-12T16:08:40.247Z,50.75
2019-03-12T16:11:11.185Z,50.75
2019-03-12T16:13:42.154Z,50.81
2019-03-12T16:16:13.226Z,50.70
2019-03-12T16:18:44.134Z,50.67
2019-03-12T16:21:15.163Z,50.74
2019-03-12T16:23:47.725Z,50.80
2019-03-12T16:26:18.677Z,50.72
2019-03-12T16:28:49.602Z,50.81
2019-03-12T16:31:21.567Z,50.70
2019-03-12T16:33:52.480Z,50.58
2019-03-12T16:36:23.912Z,50.49
2019-03-12T16:38:54.837Z,50.47
2019-03-12T16:41:30.954Z,50.53
2019-03-12T16:44:02.712Z,50.47
2019-03-12T16:46:34.648Z,50.53
2019-03-12T16:49:05.544Z,50.45
2019-03-12T16:51:36.880Z,50.54
2019-03-12T16:54:07.780Z,50.71
2019-03-12T16:56:45.010Z,50.73
2019-03-12T16:59:11.398Z,50.50
2019-03-12T17:01:43.177Z,50.47
2019-03-12T17:04:14.083Z,50.40
2019-03-12T17:06:45.093Z,50.52
2019-03-12T17:09:16.379Z,50.44
2019-03-12T17:11:47.298Z,50.44
2019-03-12T17:14:18.214Z,50.50
2019-03-12T17:16:50.020Z,50.53
2019-03-12T17:19:20.931Z,50.56
2019-03-12T17:21:51.975Z,50.61
2019-03-12T17:24:23.748Z,50.76
2019-03-12T17:26:54.746Z,50.80
2019-03-12T17:29:25.735Z,50.96
2019-03-12T17:31:57.552Z,50.97
2019-03-12T17:34:35.768Z,51.07
2019-03-12T17:37:01.101Z,51.09
2019-03-12T17:39:32.009Z,51.08
2019-03-12T17:42:02.957Z,51.18
2019-03-12T17:44:33.882Z,51.37
2019-03-12T17:47:05.697Z,51.55
2019-03-12T17:49:36.926Z,51.80
2019-03-12T17:52:07.934Z,52.20
2019-03-12T17:54:38.839Z,52.41
2019-03-12T17:57:09.873Z,52.63
2019-03-12T17:59:40.876Z,52.57
2019-03-12T18:02:13.676Z,52.69
2019-03-12T18:04:44.730Z,52.78
2019-03-12T18:07:15.687Z,53.08
2019-03-12T18:09:51.955Z,53.25
2019-03-12T18:12:22.970Z,53.26
2019-03-12T18:14:53.871Z,53.30
2019-03-12T18:17:25.767Z,53.30
2019-03-12T18:19:56.692Z,53.37
2019-03-12T18:22:27.713Z,53.57
2019-03-12T18:25:00.447Z,53.60
2019-03-12T18:27:31.382Z,53.74
2019-03-12T18:30:02.366Z,53.89
2019-03-12T18:32:34.990Z,54.21
2019-03-12T18:35:07.830Z,54.31
2019-03-12T18:37:38.780Z,54.68
2019-03-12T18:40:15.103Z,54.96
2019-03-12T18:42:46.058Z,55.00
2019-03-12T18:45:22.888Z,55.05
2019-03-12T18:47:54.770Z,55.22
2019-03-12T18:50:25.797Z,55.27
2019-03-12T18:52:56.827Z,55.37
2019-03-12T18:55:33.537Z,55.69
2019-03-12T18:58:08.780Z,56.05
2019-03-12T19:00:43.113Z,56.20
2019-03-12T19:03:15.384Z,56.35
2019-03-12T19:05:46.277Z,56.50
2019-03-12T19:08:17.390Z,56.75
2019-03-12T19:10:48.338Z,56.98
2019-03-12T19:13:19.344Z,57.44
2019-03-12T19:15:50.376Z,57.70
2019-03-12T19:18:27.663Z,58.35
2019-03-12T19:20:58.668Z,58.91
2019-03-12T19:23:29.644Z,58.91
2019-03-12T19:26:02.114Z,58.69
2019-03-12T19:28:33.123Z,58.73
2019-03-12T19:31:05.673Z,59.06
2019-03-12T19:33:37.589Z,58.94
2019-03-12T19:36:08.521Z,58.86
2019-03-12T19:38:39.457Z,58.90
2019-03-12T19:41:10.375Z,58.89
2019-03-12T19:43:41.308Z,58.99
2019-03-12T19:46:12.232Z,59.59
2019-03-12T19:48:44.115Z,59.46
2019-03-12T19:51:15.020Z,59.52
2019-03-12T19:53:45.962Z,59.61
2019-03-12T19:56:16.887Z,60.12
2019-03-12T19:58:47.840Z,60.09
2019-03-12T20:01:19.265Z,60.49
2019-03-12T20:03:51.868Z,60.51
2019-03-12T20:06:22.855Z,61.67
2019-03-12T20:08:56.900Z,61.74
2019-03-12T20:12:00.572Z,61.74
2019-03-12T20:15:06.717Z,61.51
2019-03-12T20:18:15.728Z,61.68
2019-03-12T20:20:59.402Z,61.86
2019-03-12T20:23:41.978Z,62.33
2019-03-12T20:26:49.849Z,62.33
2019-03-12T20:29:35.524Z,62.39
2019-03-12T20:32:31.875Z,62.01
2019-03-12T20:35:28.464Z,62.54
2019-03-12T20:38:30.229Z,62.44
2019-03-12T20:41:12.633Z,62.34
2019-03-12T20:44:12.136Z,62.83
2019-03-12T20:47:10.148Z,63.42
2019-03-12T20:50:03.676Z,63.69
2019-03-12T20:52:54.043Z,63.39
2019-03-12T20:55:48.383Z,63.18
2019-03-12T20:58:38.589Z,63.18
2019-03-12T21:01:28.044Z,63.28
2019-03-12T21:04:13.870Z,63.22
2019-03-12T21:07:10.304Z,63.90
2019-03-12T21:10:17.366Z,64.00
2019-03-12T21:13:17.171Z,64.00
2019-03-12T21:16:03.030Z,64.15
2019-03-12T21:19:10.039Z,66.18
2019-03-12T21:21:49.698Z,66.02
2019-03-12T21:24:47.877Z,65.87
2019-03-12T21:27:27.716Z,66.25
2019-03-12T21:29:59.068Z,66.12
2019-03-12T21:32:30.055Z,65.38
2019-03-12T21:35:00.994Z,67.12
2019-03-12T21:37:31.915Z,65.82
2019-03-12T21:40:02.854Z,66.19
2019-03-12T21:42:33.780Z,67.16
2019-03-12T21:45:07.554Z,66.27
2019-03-12T21:47:38.470Z,65.87
2019-03-12T21:50:10.629Z,66.17
2019-03-12T21:52:41.530Z,67.46
2019-03-12T21:55:14.483Z,66.62
2019-03-12T21:57:45.389Z,67.12
2019-03-12T22:00:19.081Z,67.46
2019-03-12T22:02:50.013Z,69.22
2019-03-12T22:05:20.940Z,69.22
2019-03-12T22:07:51.847Z,70.25
2019-03-12T22:10:23.675Z,69.51
2019-03-12T22:12:54.571Z,70.31
2019-03-12T22:15:29.536Z,70.80
2019-03-12T22:17:59.184Z,70.64
2019-03-12T22:20:30.916Z,70.22
2019-03-12T22:23:15.549Z,69.45
2019-03-12T22:25:46.495Z,68.84
2019-03-12T22:28:18.234Z,68.71
2019-03-12T22:30:50.170Z,68.68
2019-03-12T22:33:21.151Z,69.15
2019-03-12T22:35:54.756Z,69.13
2019-03-12T22:38:25.743Z,69.69
2019-03-12T22:40:56.680Z,69.95
2019-03-12T22:43:27.588Z,69.27
2019-03-12T22:45:59.364Z,69.58
2019-03-12T22:48:30.268Z,69.82
2019-03-12T22:51:01.197Z,70.16
2019-03-12T22:53:33.760Z,70.32
2019-03-12T22:56:06.772Z,70.06
2019-03-12T22:58:37.681Z,70.46
2019-03-12T23:01:08.696Z,71.11
2019-03-12T23:03:39.610Z,71.92
2019-03-12T23:06:11.549Z,72.25
2019-03-12T23:08:42.473Z,72.24
2019-03-12T23:11:13.434Z,73.46
2019-03-12T23:13:44.364Z,73.33
2019-03-12T23:16:15.344Z,73.33
2019-03-12T23:18:46.272Z,72.95
2019-03-12T23:21:17.250Z,72.82
2019-03-12T23:23:48.159Z,72.58
2019-03-12T23:26:19.133Z,72.58
2019-03-12T23:28:50.866Z,71.92
2019-03-12T23:31:23.314Z,71.54
2019-03-12T23:33:54.308Z,71.28
2019-03-12T23:36:25.273Z,70.91
2019-03-12T23:38:56.213Z,70.58
2019-03-12T23:41:27.170Z,70.40
2019-03-12T23:43:58.160Z,70.30
2019-03-12T23:46:30.741Z,70.10
2019-03-12T23:49:01.676Z,69.70
2019-03-12T23:51:32.676Z,69.87
2019-03-12T23:54:03.601Z,69.72
2019-03-12T23:56:34.558Z,69.47
2019-03-12T23:59:05.574Z,69.28
